Time;durP1;ratioP1;P1;durP2;ratioP2;P2;SDS_P1;SDS_P2;PMS_P1;PMS_P2;Temp;Humidity;BMP_temperature;BMP_pressure;BME280_temperature;BME280_humidity;BME280_pressure;Samples;Min_cycle;Max_cycle;Signal;HPM_P1;HPM_P2
2023/04/25 05:53:31;;;;;;;;;;;;;;;12.11;63.18;96474.53;4240036;27;10282;-63
2023/04/25 05:55:34;;;;;;;;;;;;;;;12.38;62.84;96469.94;4223948;28;7160;-63
2023/04/25 05:57:41;;;;;;;;;;;;;;;12.57;62.40;96471.66;4243957;27;5605;-63
2023/04/25 05:59:43;;;;;;;;;;;;;;;12.73;61.88;96471.13;4243952;27;5684;-63
2023/04/25 06:01:47;;;;;;;;;;;;;;;12.87;61.75;96476.34;4245329;27;5586;-64
2023/04/25 06:03:51;;;;;;;;;;;;;;;12.97;61.35;96468.72;4246956;27;5738;-70
2023/04/25 06:05:54;;;;;;;;;;;;;;;12.96;61.21;96477.72;4227447;27;5719;-69
2023/04/25 06:07:58;;;;;;;;;;;;;;;12.88;61.32;96477.97;4235075;27;5684;-70
2023/04/25 06:10:03;;;;;;;;;;;;;;;12.91;61.61;96472.22;4245812;27;5753;-70
2023/04/25 06:12:06;;;;;;;;;;;;;;;13.02;61.28;96479.50;4247397;27;5723;-70
2023/04/25 06:14:09;;;;;;;;;;;;;;;13.07;61.35;96479.69;4246820;27;5072;-69
2023/04/25 06:16:12;;;;;;;;;;;;;;;13.07;60.94;96479.69;4247325;27;5959;-69
2023/04/25 06:18:15;;;;;;;;;;;;;;;13.09;60.96;96472.31;4247820;27;5586;-70
2023/04/25 06:20:19;;;;;;;;;;;;;;;13.16;61.10;96475.72;4239700;27;6593;-70
2023/04/25 06:22:22;;;;;;;;;;;;;;;13.16;60.71;96482.88;4247242;27;5594;-65
2023/04/25 06:24:25;;;;;;;;;;;;;;;13.21;60.80;96491.03;4247877;27;5612;-65
2023/04/25 06:26:29;;;;;;;;;;;;;;;13.26;61.06;96488.53;4239200;27;5696;-65
2023/04/25 06:28:32;;;;;;;;;;;;;;;13.32;60.85;96488.47;4235496;27;5784;-65
2023/04/25 06:30:35;;;;;;;;;;;;;;;13.37;60.86;96485.19;4241035;27;5617;-65
2023/04/25 06:32:38;;;;;;;;;;;;;;;13.43;60.72;96486.13;4234768;27;5598;-65
2023/04/25 06:34:40;;;;;;;;;;;;;;;13.45;60.66;96484.88;4237511;27;5784;-65
2023/04/25 06:36:44;;;;;;;;;;;;;;;13.52;60.19;96487.50;4242742;27;5602;-65
2023/04/25 06:38:48;;;;;;;;;;;;;;;13.55;59.99;96487.03;4240732;27;5779;-66
2023/04/25 06:40:52;;;;;;;;;;;;;;;13.56;60.02;96491.31;4246363;27;5660;-65
2023/04/25 06:42:56;;;;;;;;;;;;;;;13.55;60.29;96492.34;4238166;27;5610;-66
2023/04/25 06:45:00;;;;;;;;;;;;;;;13.54;59.98;96491.53;4247114;27;5805;-66
2023/04/25 06:47:03;;;;;;;;;;;;;;;13.56;60.10;96483.34;4247120;27;5771;-65
2023/04/25 06:49:06;;;;;;;;;;;;;;;13.57;60.01;96480.47;4239268;27;5726;-66
2023/04/25 06:51:09;;;;;;;;;;;;;;;13.56;59.95;96481.50;4246847;27;5696;-66
2023/04/25 06:53:12;;;;;;;;;;;;;;;13.58;59.52;96482.09;4240133;27;5692;-66
2023/04/25 06:55:15;;;;;;;;;;;;;;;13.60;59.66;96484.56;4235856;28;5106;-65
2023/04/25 06:57:18;;;;;;;;;;;;;;;13.59;59.54;96482.91;4235477;28;7745;-65
2023/04/25 06:59:23;;;;;;;;;;;;;;;13.58;59.53;96481.28;4226440;28;5602;-65
2023/04/25 07:01:26;;;;;;;;;;;;;;;13.62;59.56;96474.53;4234473;28;5726;-64
2023/04/25 07:03:29;;;;;;;;;;;;;;;13.65;59.54;96482.84;4227309;28;5693;-65
2023/04/25 07:05:32;;;;;;;;;;;;;;;13.67;59.18;96474.66;4234614;28;5635;-65
2023/04/25 07:07:35;;;;;;;;;;;;;;;13.70;59.08;96474.22;4234423;28;5622;-65
2023/04/25 07:09:38;;;;;;;;;;;;;;;13.75;59.09;96479.69;4235330;28;5605;-65
2023/04/25 07:11:41;;;;;;;;;;;;;;;13.75;59.14;96482.34;4234802;28;5729;-65
2023/04/25 07:13:44;;;;;;;;;;;;;;;13.77;58.91;96490.09;4234710;27;5712;-67
2023/04/25 07:15:48;;;;;;;;;;;;;;;13.73;59.22;96483.59;4235453;28;6523;-66
2023/04/25 07:17:51;;;;;;;;;;;;;;;13.77;59.21;96490.09;4236521;28;5613;-65
2023/04/25 07:19:54;;;;;;;;;;;;;;;13.78;59.29;96495.19;4236334;28;5644;-65
2023/04/25 07:21:57;;;;;;;;;;;;;;;13.81;59.09;96488.63;4226655;28;6315;-65
2023/04/25 07:24:00;;;;;;;;;;;;;;;13.80;58.86;96485.16;4235736;28;5670;-65
2023/04/25 07:26:03;;;;;;;;;;;;;;;13.80;58.91;96482.50;4232827;28;5695;-64
2023/04/25 07:28:06;;;;;;;;;;;;;;;13.79;59.23;96480.06;4234974;28;5693;-65
2023/04/25 07:30:10;;;;;;;;;;;;;;;13.80;58.89;96479.03;4235240;28;5601;-64
2023/04/25 07:32:15;;;;;;;;;;;;;;;13.84;59.15;96481.03;4228674;28;5704;-64
2023/04/25 07:34:18;;;;;;;;;;;;;;;13.83;58.80;96487.38;4219527;28;6481;-64
2023/04/25 07:36:21;;;;;;;;;;;;;;;13.80;59.02;96489.66;4226847;28;5673;-65
2023/04/25 07:38:25;;;;;;;;;;;;;;;13.71;59.19;96501.63;4233002;28;5682;-65
2023/04/25 07:40:28;;;;;;;;;;;;;;;13.73;59.33;96503.03;4211916;28;5628;-65
2023/04/25 07:42:31;;;;;;;;;;;;;;;13.76;58.90;96507.06;4228197;28;5936;-65
2023/04/25 07:44:38;;;;;;;;;;;;;;;13.79;59.07;96507.44;4229980;28;7395;-65
2023/04/25 07:46:41;;;;;;;;;;;;;;;13.75;58.82;96514.22;4227127;28;5823;-66
2023/04/25 07:48:45;;;;;;;;;;;;;;;13.78;58.90;96512.97;4235171;28;5606;-65
2023/04/25 07:50:48;;;;;;;;;;;;;;;13.78;58.70;96511.13;4234234;28;5796;-65
2023/04/25 07:52:51;;;;;;;;;;;;;;;13.81;58.48;96508.03;4222855;28;5677;-66
2023/04/25 07:54:54;;;;;;;;;;;;;;;13.79;58.43;96506.63;4218209;28;5809;-66
2023/04/25 07:56:57;;;;;;;;;;;;;;;13.81;58.64;96501.91;4229898;28;5668;-66
2023/04/25 07:59:01;;;;;;;;;;;;;;;13.84;58.84;96501.47;4226441;27;5697;-67
2023/04/25 08:01:04;;;;;;;;;;;;;;;13.83;58.66;96505.97;4226494;28;5712;-65
2023/04/25 08:03:07;;;;;;;;;;;;;;;13.84;58.28;96499.63;4234252;28;5613;-65
2023/04/25 08:05:14;;;;;;;;;;;;;;;13.82;58.62;96515.00;4233064;28;5598;-65
2023/04/25 08:07:17;;;;;;;;;;;;;;;13.85;58.34;96519.03;4234517;28;5643;-66
2023/04/25 08:09:21;;;;;;;;;;;;;;;13.85;58.26;96517.19;4231265;28;5655;-65
2023/04/25 08:11:25;;;;;;;;;;;;;;;13.90;58.06;96519.19;4232761;28;5681;-65
2023/04/25 08:13:28;;;;;;;;;;;;;;;13.95;58.13;96529.97;4233458;28;6279;-66
2023/04/25 08:15:30;;;;;;;;;;;;;;;13.95;58.23;96530.78;4233550;28;5610;-66
2023/04/25 08:17:34;;;;;;;;;;;;;;;13.98;58.16;96530.34;4234903;28;5594;-66
2023/04/25 08:19:37;;;;;;;;;;;;;;;14.04;58.29;96533.94;4208062;28;5734;-66
2023/04/25 08:21:41;;;;;;;;;;;;;;;14.13;58.25;96542.44;4233297;28;5760;-65
2023/04/25 08:23:44;;;;;;;;;;;;;;;14.20;57.77;96556.50;4234340;28;5994;-65
2023/04/25 08:25:48;;;;;;;;;;;;;;;14.24;57.68;96549.69;4230911;28;7703;-66
2023/04/25 08:27:51;;;;;;;;;;;;;;;14.21;57.52;96555.44;4211580;28;5660;-66
2023/04/25 08:29:54;;;;;;;;;;;;;;;14.23;57.61;96556.84;4226890;28;5659;-66
2023/04/25 08:31:57;;;;;;;;;;;;;;;14.25;57.62;96556.63;4233994;28;5614;-65
2023/04/25 08:34:00;;;;;;;;;;;;;;;14.30;57.29;96559.44;4233268;28;5643;-65
2023/04/25 08:36:04;;;;;;;;;;;;;;;14.40;57.44;96559.75;4222401;28;5674;-66
2023/04/25 08:38:08;;;;;;;;;;;;;;;14.52;57.21;96557.19;4234585;28;5681;-65
2023/04/25 08:40:14;;;;;;;;;;;;;;;14.62;57.03;96561.97;4227879;28;5617;-66
2023/04/25 08:42:18;;;;;;;;;;;;;;;14.70;56.75;96569.63;4232352;28;5618;-66
2023/04/25 08:44:21;;;;;;;;;;;;;;;14.67;56.63;96572.75;4232704;28;5629;-66
2023/04/25 08:46:25;;;;;;;;;;;;;;;14.74;56.88;96576.13;4233843;28;5663;-65
2023/04/25 08:48:29;;;;;;;;;;;;;;;14.80;56.80;96576.03;4234749;28;5688;-66
2023/04/25 08:50:32;;;;;;;;;;;;;;;14.78;56.65;96585.28;4226507;28;5739;-65
2023/04/25 08:52:38;;;;;;;;;;;;;;;14.78;56.34;96587.94;4233707;28;5606;-66
2023/04/25 08:54:46;;;;;;;;;;;;;;;14.75;56.36;96580.41;4234051;28;5680;-66
2023/04/25 08:56:50;;;;;;;;;;;;;;;14.69;55.95;96584.78;4231557;28;5621;-65
2023/04/25 08:58:53;;;;;;;;;;;;;;;14.65;56.38;96585.47;4232729;28;5913;-66
2023/04/25 09:00:56;;;;;;;;;;;;;;;14.60;56.00;96593.28;4232833;28;7802;-66
2023/04/25 09:03:00;;;;;;;;;;;;;;;14.55;56.02;96597.44;4233941;28;5644;-66
2023/04/25 09:05:04;;;;;;;;;;;;;;;14.52;55.98;96595.22;4233717;28;5777;-66
2023/04/25 09:07:07;;;;;;;;;;;;;;;14.50;55.92;96597.31;4229249;28;5650;-66
2023/04/25 09:09:11;;;;;;;;;;;;;;;14.50;55.64;96599.97;4229958;28;5610;-66
2023/04/25 09:11:16;;;;;;;;;;;;;;;14.46;55.69;96596.09;4227793;28;5746;-66
2023/04/25 09:13:26;;;;;;;;;;;;;;;14.44;55.71;96603.50;4231812;28;5684;-66
2023/04/25 09:15:33;;;;;;;;;;;;;;;14.44;55.79;96618.59;4225549;28;5643;-66
2023/04/25 09:17:39;;;;;;;;;;;;;;;14.44;55.45;96619.44;4233996;28;5625;-66
2023/04/25 09:19:45;;;;;;;;;;;;;;;14.42;55.35;96648.09;4234284;28;5648;-66
2023/04/25 09:21:50;;;;;;;;;;;;;;;14.21;55.02;96659.94;4232629;28;5697;-66
2023/04/25 09:23:52;;;;;;;;;;;;;;;14.04;55.41;96676.66;4230124;27;7729;-66
2023/04/25 09:25:56;;;;;;;;;;;;;;;14.02;55.30;96674.22;4233152;28;5742;-66
2023/04/25 09:28:04;;;;;;;;;;;;;;;13.97;55.01;96674.06;4233108;28;5652;-66
2023/04/25 09:30:09;;;;;;;;;;;;;;;13.79;55.18;96674.81;4229186;28;5677;-66
2023/04/25 09:32:13;;;;;;;;;;;;;;;13.74;55.53;96676.50;4233238;28;5689;-66
2023/04/25 09:34:17;;;;;;;;;;;;;;;13.74;55.10;96682.63;4232728;28;5804;-66
2023/04/25 09:36:27;;;;;;;;;;;;;;;13.53;55.27;96664.38;4234256;28;5621;-66
2023/04/25 09:38:40;;;;;;;;;;;;;;;13.13;55.49;96672.53;4225635;28;5796;-66
2023/04/25 09:40:52;;;;;;;;;;;;;;;12.83;56.22;96654.53;4233302;28;5655;-66
2023/04/25 09:42:55;;;;;;;;;;;;;;;12.72;56.32;96636.63;4233594;28;5598;-65
2023/04/25 09:45:01;;;;;;;;;;;;;;;12.86;56.39;96636.56;4233895;28;5779;-67
2023/04/25 09:47:04;;;;;;;;;;;;;;;12.93;56.40;96642.66;4234265;28;5663;-65
2023/04/25 09:49:08;;;;;;;;;;;;;;;12.95;56.31;96643.25;4234067;28;5762;-65
2023/04/25 09:51:13;;;;;;;;;;;;;;;12.98;56.71;96640.16;4230343;28;5848;-65
2023/04/25 09:53:16;;;;;;;;;;;;;;;13.07;56.63;96638.91;4222718;28;5789;-65
2023/04/25 09:55:19;;;;;;;;;;;;;;;13.11;56.61;96645.41;4232120;28;5659;-65
2023/04/25 09:57:24;;;;;;;;;;;;;;;13.16;56.41;96648.25;4233761;28;5639;-65
2023/04/25 09:59:31;;;;;;;;;;;;;;;13.25;56.29;96654.13;4230940;28;5610;-65
2023/04/25 10:01:37;;;;;;;;;;;;;;;13.33;56.29;96660.00;4229209;28;5602;-65
2023/04/25 10:03:42;;;;;;;;;;;;;;;13.53;56.23;96662.53;4229880;28;6186;-65
2023/04/25 10:05:46;;;;;;;;;;;;;;;13.73;55.84;96665.06;4228411;28;5586;-65
2023/04/25 10:07:53;;;;;;;;;;;;;;;13.88;55.77;96672.72;4233899;28;6290;-65
2023/04/25 10:10:01;;;;;;;;;;;;;;;13.93;55.59;96676.38;4233822;28;5784;-65
2023/04/25 10:12:05;;;;;;;;;;;;;;;13.93;55.58;96679.03;4226610;28;5760;-65
2023/04/25 10:14:10;;;;;;;;;;;;;;;13.99;55.39;96686.13;4225101;28;6006;-65
2023/04/25 10:16:14;;;;;;;;;;;;;;;14.11;54.89;96701.34;4233342;28;7700;-66
2023/04/25 10:18:19;;;;;;;;;;;;;;;14.16;54.78;96696.22;4233492;28;5730;-65
2023/04/25 10:20:23;;;;;;;;;;;;;;;14.17;54.88;96697.84;4233380;28;5712;-65
2023/04/25 10:22:33;;;;;;;;;;;;;;;14.26;54.56;96701.81;4233607;28;5582;-65
2023/04/25 10:24:37;;;;;;;;;;;;;;;14.31;54.76;96693.22;4226228;28;5667;-65
2023/04/25 10:26:42;;;;;;;;;;;;;;;14.35;54.39;96689.06;4231085;28;5668;-65
2023/04/25 10:28:56;;;;;;;;;;;;;;;14.36;54.52;96694.16;4228721;28;5597;-65
2023/04/25 10:31:01;;;;;;;;;;;;;;;14.38;54.18;96702.72;4233207;28;5618;-65
2023/04/25 10:33:19;;;;;;;;;;;;;;;14.33;54.05;96697.28;4229012;28;5668;-65
2023/04/25 10:35:26;;;;;;;;;;;;;;;14.32;54.10;96695.66;4228665;28;5858;-65
2023/04/25 10:37:31;;;;;;;;;;;;;;;14.35;54.04;96694.38;4236416;28;5700;-67
2023/04/25 10:39:33;;;;;;;;;;;;;;;14.41;54.00;96698.84;4228475;28;5617;-65
2023/04/25 10:41:53;;;;;;;;;;;;;;;14.47;53.96;96692.66;4236001;28;5729;-65
2023/04/25 10:44:01;;;;;;;;;;;;;;;14.54;53.55;96694.22;4232271;28;5669;-64
2023/04/25 10:46:15;;;;;;;;;;;;;;;14.62;53.43;96695.00;4232941;28;5602;-64
2023/04/25 10:48:27;;;;;;;;;;;;;;;14.70;53.48;96692.03;4233611;28;5689;-65
2023/04/25 10:50:39;;;;;;;;;;;;;;;14.77;53.19;96688.25;4221867;28;5590;-62
2023/04/25 10:52:43;;;;;;;;;;;;;;;14.82;53.18;96696.38;4235198;28;5681;-62
2023/04/25 10:54:52;;;;;;;;;;;;;;;14.82;53.19;96698.22;4233877;28;5605;-62
2023/04/25 10:56:55;;;;;;;;;;;;;;;14.81;52.96;96694.75;4230664;28;5793;-62
2023/04/25 10:59:06;;;;;;;;;;;;;;;14.80;52.86;96697.63;4226700;28;5606;-72
2023/04/25 11:01:09;;;;;;;;;;;;;;;14.82;52.91;96696.38;4233611;28;5644;-66
2023/04/25 11:03:17;;;;;;;;;;;;;;;14.89;52.98;96704.31;4235666;28;5606;-68
2023/04/25 11:05:25;;;;;;;;;;;;;;;14.95;52.73;96706.09;4227813;28;5596;-68
2023/04/25 11:07:36;;;;;;;;;;;;;;;15.06;52.60;96702.69;4234825;28;7072;-66
2023/04/25 11:09:41;;;;;;;;;;;;;;;15.14;52.30;96704.19;4220316;28;5650;-65
2023/04/25 11:11:43;;;;;;;;;;;;;;;15.18;52.17;96704.59;4227131;28;5789;-66
2023/04/25 11:13:49;;;;;;;;;;;;;;;15.26;52.03;96706.91;4231728;28;5715;-68
2023/04/25 11:15:52;;;;;;;;;;;;;;;15.30;51.88;96697.47;4233590;28;5605;-67
2023/04/25 11:18:18;;;;;;;;;;;;;;;15.34;52.10;96703.97;4233483;28;5088;-65
2023/04/25 11:20:23;;;;;;;;;;;;;;;15.38;51.92;96703.25;4235633;28;5658;-67
2023/04/25 11:22:28;;;;;;;;;;;;;;;15.43;51.87;96697.28;4223068;28;5625;-68
2023/04/25 11:24:32;;;;;;;;;;;;;;;15.49;51.65;96701.69;4229999;28;5634;-66
2023/04/25 11:26:37;;;;;;;;;;;;;;;15.50;51.74;96694.50;4234712;28;5586;-68
2023/04/25 11:28:40;;;;;;;;;;;;;;;15.46;51.54;96696.00;4224995;28;5625;-67
2023/04/25 11:30:49;;;;;;;;;;;;;;;15.47;51.56;96682.47;4228417;28;5241;-66
2023/04/25 11:32:52;;;;;;;;;;;;;;;15.50;51.63;96690.00;4230858;28;5088;-67
2023/04/25 11:34:56;;;;;;;;;;;;;;;15.46;51.51;96675.50;4233329;27;6279;-67
2023/04/25 11:37:01;;;;;;;;;;;;;;;15.37;51.41;96680.34;4232197;28;5590;-66
2023/04/25 11:39:05;;;;;;;;;;;;;;;15.34;51.64;96683.47;4235410;28;5598;-67
2023/04/25 11:41:08;;;;;;;;;;;;;;;15.33;51.60;96671.19;4234021;28;5673;-66
2023/04/25 11:43:11;;;;;;;;;;;;;;;15.43;51.69;96673.31;4209752;28;5636;-65
2023/04/25 11:45:16;;;;;;;;;;;;;;;15.46;51.46;96680.84;4229693;28;5594;-66
2023/04/25 11:47:19;;;;;;;;;;;;;;;15.51;51.39;96683.63;4227504;28;5704;-65
2023/04/25 11:49:24;;;;;;;;;;;;;;;15.48;51.23;96681.41;4225874;28;5871;-65
2023/04/25 11:51:27;;;;;;;;;;;;;;;15.41;50.97;96686.03;4233917;28;6841;-66
2023/04/25 11:53:32;;;;;;;;;;;;;;;15.36;51.02;96688.56;4226833;28;5594;-67
2023/04/25 11:55:36;;;;;;;;;;;;;;;15.32;50.65;96690.06;4234993;28;5606;-68
2023/04/25 11:57:40;;;;;;;;;;;;;;;15.27;50.52;96692.56;4233959;27;5598;-67
2023/04/25 11:59:46;;;;;;;;;;;;;;;15.21;50.51;96680.97;4228623;28;5653;-66
2023/04/25 12:01:50;;;;;;;;;;;;;;;15.20;50.30;96683.88;4230946;28;5793;-65
2023/04/25 12:03:53;;;;;;;;;;;;;;;15.17;50.30;96681.63;4230399;28;5657;-65
2023/04/25 12:06:04;;;;;;;;;;;;;;;15.22;49.97;96679.13;4222754;28;5600;-65
2023/04/25 12:08:12;;;;;;;;;;;;;;;15.27;49.92;96681.91;4221903;28;5705;-65
2023/04/25 12:10:18;;;;;;;;;;;;;;;15.34;49.50;96683.47;4224085;28;5597;-65
2023/04/25 12:12:21;;;;;;;;;;;;;;;15.42;49.42;96685.00;4224773;28;5685;-64
2023/04/25 12:14:26;;;;;;;;;;;;;;;15.51;49.46;96682.81;4222607;28;5119;-67
2023/04/25 12:16:31;;;;;;;;;;;;;;;15.54;49.05;96687.72;4229679;28;5825;-64
2023/04/25 12:18:36;;;;;;;;;;;;;;;15.52;49.04;96685.28;4223891;28;5664;-65
2023/04/25 12:20:39;;;;;;;;;;;;;;;15.50;48.86;96687.31;4217498;28;6433;-66
2023/04/25 12:22:45;;;;;;;;;;;;;;;15.47;48.87;96694.97;4227671;28;5602;-66
2023/04/25 12:24:48;;;;;;;;;;;;;;;15.44;48.73;96688.25;4224309;28;5708;-66
2023/04/25 12:26:54;;;;;;;;;;;;;;;15.43;48.45;96687.44;4223718;28;5594;-66
2023/04/25 12:28:57;;;;;;;;;;;;;;;15.37;48.58;96695.50;4220593;28;5614;-67
2023/04/25 12:31:02;;;;;;;;;;;;;;;15.32;48.46;96692.72;4224519;28;5797;-64
2023/04/25 12:33:05;;;;;;;;;;;;;;;15.30;48.46;96687.63;4231475;28;5689;-64
2023/04/25 12:35:09;;;;;;;;;;;;;;;15.28;48.30;96691.53;4225744;28;5664;-65
2023/04/25 12:37:12;;;;;;;;;;;;;;;15.24;48.21;96687.69;4218795;28;5669;-64
2023/04/25 12:39:16;;;;;;;;;;;;;;;15.24;48.06;96680.53;4232105;28;5594;-64
2023/04/25 12:41:19;;;;;;;;;;;;;;;15.26;48.07;96681.09;4234125;28;5692;-65
2023/04/25 12:43:23;;;;;;;;;;;;;;;15.27;47.65;96684.56;4224281;28;5617;-65
2023/04/25 12:45:26;;;;;;;;;;;;;;;15.26;47.73;96696.28;4222957;28;5870;-65
2023/04/25 12:47:29;;;;;;;;;;;;;;;15.13;47.84;96691.94;4233306;28;5665;-65
2023/04/25 12:49:32;;;;;;;;;;;;;;;15.10;48.10;96693.19;4219650;28;7124;-64
2023/04/25 12:51:36;;;;;;;;;;;;;;;15.17;47.93;96697.59;4224908;28;5091;-65
2023/04/25 12:53:40;;;;;;;;;;;;;;;15.25;48.21;96694.66;4232616;28;5613;-65
2023/04/25 12:55:45;;;;;;;;;;;;;;;15.28;48.28;96688.88;4230769;28;5594;-65
2023/04/25 12:57:52;;;;;;;;;;;;;;;15.34;48.25;96694.13;4226687;28;5594;-67
2023/04/25 12:59:56;;;;;;;;;;;;;;;15.42;48.16;96679.69;4233220;28;5622;-65
2023/04/25 13:01:59;;;;;;;;;;;;;;;15.48;48.07;96678.75;4229795;28;5664;-66
2023/04/25 13:04:02;;;;;;;;;;;;;;;15.45;48.12;96684.53;4224904;28;5598;-67
2023/04/25 13:06:06;;;;;;;;;;;;;;;15.43;48.25;96684.78;4222720;28;6366;-67
2023/04/25 13:08:11;;;;;;;;;;;;;;;15.50;48.36;96683.84;4232018;28;5598;-66
2023/04/25 13:10:14;;;;;;;;;;;;;;;15.56;48.15;96686.44;4233850;28;5617;-67
2023/04/25 13:12:17;;;;;;;;;;;;;;;15.63;48.04;96681.06;4233164;28;5610;-66
2023/04/25 13:14:22;;;;;;;;;;;;;;;15.68;47.76;96687.31;4233323;28;5634;-67
2023/04/25 13:16:26;;;;;;;;;;;;;;;15.70;47.97;96687.88;4233487;28;5601;-67
2023/04/25 13:18:30;;;;;;;;;;;;;;;15.71;47.70;96681.50;4233248;28;5680;-66
2023/04/25 13:20:33;;;;;;;;;;;;;;;15.76;47.91;96685.38;4232413;28;5685;-64
2023/04/25 13:22:37;;;;;;;;;;;;;;;15.81;47.88;96688.16;4220696;28;5844;-64
2023/04/25 13:24:40;;;;;;;;;;;;;;;15.80;47.79;96686.53;4233820;28;5626;-64
2023/04/25 13:26:44;;;;;;;;;;;;;;;15.78;47.87;96677.94;4225019;28;5674;-63
2023/04/25 13:28:48;;;;;;;;;;;;;;;15.74;47.99;96688.25;4224879;28;5818;-64
2023/04/25 13:30:51;;;;;;;;;;;;;;;15.71;47.83;96684.19;4231637;28;5926;-64
2023/04/25 13:32:57;;;;;;;;;;;;;;;15.70;47.86;96681.75;4226699;28;5819;-64
2023/04/25 13:35:01;;;;;;;;;;;;;;;15.64;48.15;96688.00;4225091;28;5684;-64
2023/04/25 13:37:08;;;;;;;;;;;;;;;15.57;47.76;96681.91;4229512;28;5755;-64
2023/04/25 13:39:12;;;;;;;;;;;;;;;15.48;47.83;96684.09;4222559;28;5626;-64
2023/04/25 13:41:18;;;;;;;;;;;;;;;15.46;47.98;96680.03;4233047;28;5662;-65
2023/04/25 13:43:21;;;;;;;;;;;;;;;15.46;47.88;96680.84;4231867;28;6283;-65
2023/04/25 13:45:24;;;;;;;;;;;;;;;15.42;48.03;96680.50;4232501;28;5693;-64
2023/04/25 13:47:28;;;;;;;;;;;;;;;15.43;47.79;96686.63;4233562;28;5809;-64
2023/04/25 13:49:34;;;;;;;;;;;;;;;15.42;47.83;96679.69;4217470;28;5706;-64
2023/04/25 13:51:37;;;;;;;;;;;;;;;15.37;47.88;96683.00;4225071;28;5594;-64
2023/04/25 13:53:39;;;;;;;;;;;;;;;15.30;47.77;96676.97;4231734;28;5849;-64
2023/04/25 13:55:42;;;;;;;;;;;;;;;15.22;47.80;96685.25;4217449;28;6338;-64
2023/04/25 13:57:45;;;;;;;;;;;;;;;15.14;47.83;96675.72;4230785;28;5639;-64
2023/04/25 13:59:48;;;;;;;;;;;;;;;15.13;47.83;96682.09;4215945;28;5831;-64
2023/04/25 14:01:51;;;;;;;;;;;;;;;15.15;47.95;96680.00;4224355;28;5609;-64
2023/04/25 14:03:54;;;;;;;;;;;;;;;15.22;47.94;96681.78;4231474;28;6637;-64
2023/04/25 14:05:59;;;;;;;;;;;;;;;15.34;47.71;96687.97;4219758;28;5690;-64
2023/04/25 14:08:01;;;;;;;;;;;;;;;15.42;47.58;96683.16;4230321;28;5673;-64
2023/04/25 14:10:05;;;;;;;;;;;;;;;15.51;47.56;96682.81;4236788;28;5590;-64
2023/04/25 14:12:08;;;;;;;;;;;;;;;15.53;47.33;96680.75;4236111;28;5821;-64
2023/04/25 14:14:15;;;;;;;;;;;;;;;15.53;47.37;96681.56;4236182;28;5594;-64
2023/04/25 14:16:18;;;;;;;;;;;;;;;15.53;47.00;96692.22;4236575;28;5599;-66
2023/04/25 14:18:23;;;;;;;;;;;;;;;15.53;47.14;96692.22;4234745;28;5594;-65
2023/04/25 14:20:26;;;;;;;;;;;;;;;15.53;46.92;96686.91;4232717;28;5866;-65
2023/04/25 14:22:30;;;;;;;;;;;;;;;15.55;46.80;96687.47;4236283;28;5655;-66
2023/04/25 14:24:33;;;;;;;;;;;;;;;15.53;46.75;96681.56;4235943;28;5865;-65
2023/04/25 14:26:36;;;;;;;;;;;;;;;15.55;46.85;96678.66;4230003;28;5610;-64
2023/04/25 14:28:39;;;;;;;;;;;;;;;15.58;46.65;96673.69;4234361;28;5617;-65
2023/04/25 14:30:42;;;;;;;;;;;;;;;15.61;46.56;96664.47;4226349;28;5752;-64
2023/04/25 14:32:45;;;;;;;;;;;;;;;15.63;46.63;96665.88;4231504;28;5665;-67
2023/04/25 14:34:49;;;;;;;;;;;;;;;15.67;46.67;96663.56;4229452;28;5828;-64
2023/04/25 14:36:53;;;;;;;;;;;;;;;15.71;46.52;96667.38;4229787;28;5670;-65
2023/04/25 14:38:58;;;;;;;;;;;;;;;15.76;46.37;96664.84;4232045;28;5700;-64
2023/04/25 14:41:01;;;;;;;;;;;;;;;15.79;46.21;96663.59;4227774;28;5586;-63
2023/04/25 14:43:04;;;;;;;;;;;;;;;15.78;46.21;96662.78;4228854;28;5681;-63
2023/04/25 14:45:08;;;;;;;;;;;;;;;15.75;45.97;96665.91;4226905;27;5732;-63
2023/04/25 14:47:11;;;;;;;;;;;;;;;15.73;45.66;96659.97;4229964;28;5760;-64
2023/04/25 14:49:14;;;;;;;;;;;;;;;15.69;45.69;96664.94;4230467;28;5776;-63
2023/04/25 14:51:17;;;;;;;;;;;;;;;15.71;45.74;96657.53;4227797;28;5761;-63
2023/04/25 14:53:20;;;;;;;;;;;;;;;15.77;45.51;96655.00;4230942;28;5609;-63
2023/04/25 14:55:25;;;;;;;;;;;;;;;15.78;45.60;96657.44;4228629;28;5677;-66
2023/04/25 14:57:28;;;;;;;;;;;;;;;15.85;45.30;96658.13;4225487;28;5689;-63
2023/04/25 14:59:31;;;;;;;;;;;;;;;15.89;45.25;96655.84;4226821;28;5796;-66
2023/04/25 15:01:34;;;;;;;;;;;;;;;15.88;45.05;96651.56;4230906;28;5629;-65
2023/04/25 15:03:37;;;;;;;;;;;;;;;15.91;44.83;96651.09;4224122;28;5681;-63
2023/04/25 15:05:41;;;;;;;;;;;;;;;15.94;44.76;96655.94;4232174;28;5778;-65
2023/04/25 15:07:45;;;;;;;;;;;;;;;15.95;44.66;96665.56;4227107;28;5826;-65
2023/04/25 15:09:48;;;;;;;;;;;;;;;15.90;44.63;96657.47;4226432;28;6269;-64
2023/04/25 15:11:53;;;;;;;;;;;;;;;15.90;44.35;96662.78;4225268;28;5760;-63
2023/04/25 15:13:56;;;;;;;;;;;;;;;15.90;44.28;96646.78;4229984;28;5652;-64
2023/04/25 15:15:58;;;;;;;;;;;;;;;15.93;44.22;96651.66;4227570;28;5673;-63
2023/04/25 15:18:02;;;;;;;;;;;;;;;15.93;43.85;96651.66;4223080;28;6295;-65
2023/04/25 15:20:06;;;;;;;;;;;;;;;15.94;43.92;96651.44;4218934;28;5666;-63
2023/04/25 15:22:09;;;;;;;;;;;;;;;15.94;43.48;96661.28;4220770;28;5693;-63
2023/04/25 15:24:14;;;;;;;;;;;;;;;15.92;43.57;96663.38;4224284;28;5699;-67
2023/04/25 15:26:16;;;;;;;;;;;;;;;15.91;43.38;96656.41;4223834;28;5751;-70
2023/04/25 15:28:21;;;;;;;;;;;;;;;15.90;43.35;96660.94;4225570;28;5776;-70
2023/04/25 15:30:24;;;;;;;;;;;;;;;15.91;43.52;96656.41;4225519;28;5885;-66
2023/04/25 15:32:27;;;;;;;;;;;;;;;15.91;43.41;96659.09;4218071;28;5806;-68
2023/04/25 15:34:30;;;;;;;;;;;;;;;15.92;43.27;96658.84;4226163;28;5785;-68
2023/04/25 15:36:33;;;;;;;;;;;;;;;15.89;43.59;96664.66;4225571;28;5680;-68
2023/04/25 15:38:36;;;;;;;;;;;;;;;15.87;43.61;96663.25;4227326;28;5649;-63
2023/04/25 15:40:39;;;;;;;;;;;;;;;15.82;43.55;96666.59;4223894;28;5602;-69
2023/04/25 15:42:43;;;;;;;;;;;;;;;15.81;43.45;96672.97;4224243;28;5772;-66
2023/04/25 15:44:47;;;;;;;;;;;;;;;15.81;43.56;96674.81;4219318;28;5708;-66
2023/04/25 15:46:50;;;;;;;;;;;;;;;15.83;43.49;96681.53;4227035;28;6308;-63
2023/04/25 15:48:55;;;;;;;;;;;;;;;15.85;43.47;96673.31;4228272;28;5677;-64
2023/04/25 15:50:58;;;;;;;;;;;;;;;15.86;43.64;96672.31;4221302;28;5674;-65
2023/04/25 15:53:01;;;;;;;;;;;;;;;15.83;43.31;96670.88;4225032;28;5602;-69
2023/04/25 15:55:07;;;;;;;;;;;;;;;15.83;43.40;96672.72;4226263;28;5598;-69
2023/04/25 15:57:11;;;;;;;;;;;;;;;15.80;43.68;96681.19;4229918;28;5792;-66
2023/04/25 15:59:14;;;;;;;;;;;;;;;15.78;43.61;96677.94;4227991;28;5512;-65
2023/04/25 16:01:22;;;;;;;;;;;;;;;15.79;43.63;96675.06;4228905;28;6331;-64
2023/04/25 16:03:26;;;;;;;;;;;;;;;15.81;43.54;96674.81;4229611;27;5628;-66
2023/04/25 16:05:29;;;;;;;;;;;;;;;15.81;43.41;96674.81;4222485;28;5864;-65
2023/04/25 16:07:32;;;;;;;;;;;;;;;15.74;43.36;96677.56;4216261;28;5640;-65
2023/04/25 16:09:34;;;;;;;;;;;;;;;15.65;43.51;96666.47;4220117;28;6413;-65
2023/04/25 16:11:37;;;;;;;;;;;;;;;15.60;43.53;96673.50;4225750;28;5880;-65
2023/04/25 16:13:40;;;;;;;;;;;;;;;15.60;43.28;96678.81;4229432;28;5597;-65
2023/04/25 16:15:43;;;;;;;;;;;;;;;15.61;43.38;96673.25;4232872;28;5756;-65
2023/04/25 16:17:47;;;;;;;;;;;;;;;15.63;43.50;96675.72;4225891;28;5594;-63
2023/04/25 16:19:50;;;;;;;;;;;;;;;15.64;43.17;96682.69;4222701;28;5748;-64
2023/04/25 16:21:54;;;;;;;;;;;;;;;15.65;43.21;96673.63;4219590;28;5663;-66
2023/04/25 16:23:57;;;;;;;;;;;;;;;15.65;43.20;96689.63;4222571;28;5648;-68
2023/04/25 16:26:00;;;;;;;;;;;;;;;15.66;43.02;96683.25;4224408;28;5502;-68
2023/04/25 16:28:03;;;;;;;;;;;;;;;15.68;43.01;96689.16;4228757;28;7805;-68
2023/04/25 16:30:08;;;;;;;;;;;;;;;15.68;43.08;96691.81;4221950;28;5590;-74
2023/04/25 16:32:12;;;;;;;;;;;;;;;15.66;43.04;96692.06;4229355;28;5696;-66
2023/04/25 16:34:20;;;;;;;;;;;;;;;15.64;42.96;96694.16;4225645;28;5629;-68
2023/04/25 16:36:23;;;;;;;;;;;;;;;15.60;43.18;96692.16;4232594;28;5726;-68
2023/04/25 16:38:26;;;;;;;;;;;;;;;15.59;42.89;96695.81;4229326;28;5721;-68
2023/04/25 16:40:30;;;;;;;;;;;;;;;15.61;42.97;96685.78;4224076;28;6405;-67
2023/04/25 16:42:33;;;;;;;;;;;;;;;15.62;43.20;96688.22;4229582;28;5629;-68
2023/04/25 16:44:36;;;;;;;;;;;;;;;15.63;43.02;96687.19;4231694;28;5589;-67
2023/04/25 16:46:39;;;;;;;;;;;;;;;15.65;43.12;96678.97;4223318;28;5606;-65
2023/04/25 16:48:42;;;;;;;;;;;;;;;15.69;42.89;96678.28;4232646;28;5910;-67